N9875 KRIC-
Flight info
| Callsign | N9875 |
|---|---|
| Flight time | N/A |
| Altitude | VFR |
| Route | VFR NW |
| Aircraft | PC12/L-DOV/C |
Departure
| Time | 2026-04-16 15:09 |
|---|---|
| Airport | Richmond International Airport (KRIC) |
Arrival
| Time | N/A |
|---|---|
| Airport | - |
| Time | Latitude | Longitude | Altitude | Speed | Heading |
|---|---|---|---|---|---|
| 2026-04-16 15:08 | 37.52801 | -77.32085 | 524 ft | 100 kts | 194° |
| 2026-04-16 15:08 | 37.52139 | -77.32279 | 274 ft | 95 kts | 196° |
| 2026-04-16 15:08 | 37.51548 | -77.32466 | 173 ft | 81 kts | 195° |
| 2026-04-16 15:08 | 37.51152 | -77.32588 | 162 ft | 17 kts | 193° |
| 2026-04-16 15:09 | 37.50927 | -77.32654 | 162 ft | 68 kts | 193° |
| 2026-04-16 15:09 | 37.50301 | -77.32844 | 234 ft | 103 kts | 194° |
| 2026-04-16 15:09 | 37.49595 | -77.33047 | 494 ft | 105 kts | 198° |
| 2026-04-16 15:09 | 37.49033 | -77.33594 | 783 ft | 110 kts | 242° |
| 2026-04-16 15:10 | 37.48833 | -77.34564 | 1003 ft | 118 kts | 253° |
| 2026-04-16 15:10 | 37.48609 | -77.35574 | 1200 ft | 124 kts | 250° |
| 2026-04-16 15:10 | 37.48329 | -77.36598 | 1475 ft | 120 kts | 248° |
| 2026-04-16 15:10 | 37.48048 | -77.37543 | 1845 ft | 112 kts | 247° |
| 2026-04-16 15:11 | 37.48010 | -77.38471 | 2204 ft | 110 kts | 287° |
| 2026-04-16 15:11 | 37.48469 | -77.39248 | 2465 ft | 118 kts | 307° |
| 2026-04-16 15:11 | 37.49065 | -77.40025 | 2467 ft | 126 kts | 309° |
| 2026-04-16 15:11 | 37.49656 | -77.40783 | 2493 ft | 122 kts | 309° |
| 2026-04-16 15:12 | 37.50213 | -77.41497 | 2497 ft | 120 kts | 309° |
| 2026-04-16 15:12 | 37.50762 | -77.42164 | 2498 ft | 121 kts | 319° |
| 2026-04-16 15:12 | 37.51509 | -77.42670 | 2499 ft | 122 kts | 328° |
| 2026-04-16 15:12 | 37.52277 | -77.43126 | 2499 ft | 122 kts | 329° |
| 2026-04-16 15:13 | 37.53041 | -77.43574 | 2499 ft | 121 kts | 329° |
| 2026-04-16 15:13 | 37.53803 | -77.44018 | 2499 ft | 120 kts | 329° |
| 2026-04-16 15:13 | 37.54572 | -77.44430 | 2498 ft | 123 kts | 342° |
| 2026-04-16 15:13 | 37.55419 | -77.44251 | 2503 ft | 130 kts | 27° |
| 2026-04-16 15:14 | 37.56063 | -77.43455 | 2502 ft | 133 kts | 62° |
| 2026-04-16 15:14 | 37.56190 | -77.42332 | 2503 ft | 130 kts | 106° |
| 2026-04-16 15:14 | 37.55891 | -77.41349 | 2497 ft | 122 kts | 119° |
| 2026-04-16 15:14 | 37.55551 | -77.40426 | 2490 ft | 110 kts | 120° |
| 2026-04-16 15:15 | 37.55250 | -77.39602 | 2486 ft | 98 kts | 120° |
| 2026-04-16 15:15 | 37.54839 | -77.38753 | 2685 ft | 131 kts | 129° |
| 2026-04-16 15:15 | 37.54341 | -77.37671 | 3142 ft | 154 kts | 120° |
| 2026-04-16 15:15 | 37.53839 | -77.36417 | 3605 ft | 171 kts | 120° |
| 2026-04-16 15:16 | 37.53272 | -77.35018 | 3993 ft | 187 kts | 120° |
| 2026-04-16 15:16 | 37.52667 | -77.33540 | 4367 ft | 197 kts | 120° |
| 2026-04-16 15:16 | 37.52002 | -77.31925 | 4490 ft | 216 kts | 120° |
| 2026-04-16 15:16 | 37.51277 | -77.30201 | 4502 ft | 231 kts | 120° |
| 2026-04-16 15:17 | 37.50541 | -77.28460 | 4496 ft | 212 kts | 120° |
| 2026-04-16 15:17 | 37.49895 | -77.26891 | 4494 ft | 193 kts | 119° |
| 2026-04-16 15:17 | 37.49696 | -77.25303 | 4500 ft | 183 kts | 76° |
| 2026-04-16 15:17 | 37.50281 | -77.23961 | 4501 ft | 171 kts | 52° |
| 2026-04-16 15:18 | 37.50977 | -77.22798 | 4497 ft | 163 kts | 51° |
| 2026-04-16 15:18 | 37.51649 | -77.21689 | 4495 ft | 156 kts | 51° |
| 2026-04-16 15:18 | 37.52385 | -77.20655 | 4160 ft | 162 kts | 29° |
| 2026-04-16 15:18 | 37.53435 | -77.20371 | 3801 ft | 157 kts | 344° |
| 2026-04-16 15:19 | 37.54350 | -77.21027 | 3437 ft | 152 kts | 309° |
| 2026-04-16 15:19 | 37.54745 | -77.22199 | 3073 ft | 148 kts | 274° |
| 2026-04-16 15:19 | 37.54814 | -77.23477 | 2703 ft | 149 kts | 270° |
| 2026-04-16 15:19 | 37.54855 | -77.24792 | 2326 ft | 151 kts | 270° |
| 2026-04-16 15:20 | 37.54894 | -77.26111 | 1951 ft | 152 kts | 270° |
| 2026-04-16 15:20 | 37.54926 | -77.27441 | 1577 ft | 154 kts | 269° |
| 2026-04-16 15:20 | 37.54932 | -77.28770 | 1291 ft | 150 kts | 267° |
| 2026-04-16 15:20 | 37.54890 | -77.30020 | 1105 ft | 133 kts | 258° |
| 2026-04-16 15:21 | 37.54507 | -77.30965 | 885 ft | 117 kts | 226° |
| 2026-04-16 15:21 | 37.53895 | -77.31591 | 595 ft | 113 kts | 211° |
| 2026-04-16 15:21 | 37.53215 | -77.31968 | 427 ft | 102 kts | 196° |
| 2026-04-16 15:21 | 37.52552 | -77.32145 | 330 ft | 96 kts | 194° |
| 2026-04-16 15:22 | 37.51903 | -77.32348 | 222 ft | 96 kts | 197° |
| 2026-04-16 15:22 | 37.51271 | -77.32552 | 162 ft | 92 kts | 195° |
| 2026-04-16 15:22 | 37.50714 | -77.32716 | 159 ft | 64 kts | 193° |
| 2026-04-16 15:22 | 37.50491 | -77.32786 | 159 ft | 18 kts | 189° |
| 2026-04-16 15:23 | 37.50464 | -77.32906 | 158 ft | 6 kts | 284° |
| 2026-04-16 15:23 | 37.50466 | -77.32913 | 158 ft | 0 kts | 285° |
| 2026-04-16 15:24 | 37.50478 | -77.32932 | 158 ft | 11 kts | 343° |
| 2026-04-16 15:24 | 37.50599 | -77.32896 | 158 ft | 22 kts | 13° |
| 2026-04-16 15:25 | 37.50760 | -77.32848 | 160 ft | 24 kts | 11° |
| 2026-04-16 15:25 | 37.50927 | -77.32798 | 162 ft | 26 kts | 11° |
| 2026-04-16 15:25 | 37.51094 | -77.32746 | 162 ft | 25 kts | 13° |
| 2026-04-16 15:25 | 37.51215 | -77.32758 | 162 ft | 19 kts | 288° |
| 2026-04-16 15:26 | 37.51215 | -77.32918 | 162 ft | 19 kts | 330° |
| 2026-04-16 15:26 | 37.51359 | -77.32885 | 162 ft | 23 kts | 9° |
| 2026-04-16 15:26 | 37.51509 | -77.32839 | 162 ft | 15 kts | 10° |
| 2026-04-16 15:26 | 37.51617 | -77.32866 | 162 ft | 15 kts | 9° |
| 2026-04-16 15:27 | 37.51700 | -77.32880 | 162 ft | 11 kts | 31° |
| 2026-04-16 15:27 | 37.51745 | -77.32824 | 162 ft | 5 kts | 335° |
| 2026-04-16 15:27 | 37.51759 | -77.32834 | 162 ft | 0 kts | 340° |